Akaska, SD (57420)

8:15 PM CST on January 20, 2017 (GMT -0600)
Hoven | | Change Station

Elev 1877 ft 45.24 °N, 99.78 °W | Updated 20 seconds ago

Fog
Fog
21.4 °F
Feels Like 21 °F
N
0.0
Wind Variable Wind from SSE
Gusts 6.3 mph

Today
High -- | Low -- °F
--% Chance of Precip.
Yesterday
High -- | Low -- °F
Precip. -- in
Pressure 29.29 in
Visibility 2.5 miles
Clouds Scattered Clouds 200 ft
Overcast 1100 ft
Windchill 21 °F
Dew Point 21 °F
Humidity 98%
Rainfall 0.08 in
Snow Depth Not available.
8:12 AM 5:31 PM
Last Quarter, 39% visible
SPECI KMBG 210203Z AUTO 34004KT 2 1/2SM BR SCT002 OVC011 M01/M02 A2929 RMK AO2 CIG 006V012 T10061022 $
Pressure 29.29 in
Visibility 2.5 miles
Clouds Scattered Clouds 200 ft
Overcast 1100 ft
Windchill 21 °F
Dew Point 21 °F
Humidity 98%
Rainfall 0.08 in
Snow Depth Not available.
8:12 AM 5:31 PM
Last Quarter, 39% visible
SPECI KMBG 210203Z AUTO 34004KT 2 1/2SM BR SCT002 OVC011 M01/M02 A2929 RMK AO2 CIG 006V012 T10061022 $

Get Your Daily Forecast Email!

Thanks for signing up!

Be on the lookout for a verification email in your inbox.

You'll start receiving the daily forecast at 8 AM.

×

10-Day Weather Forecast

Almanac

Astronomy

Jan. 20, 2017 Rise Set
Actual Time
Civil Twilight
Nautical Twilight
Astronomical Twilight
Moon
Length of Visible Light
Length of Day
Tomorrow will be .
, % of the Moon is Illuminated

Today's Extremes

State Highs State Lows

Community

WunderPhotos

Upload Photos

1,962,540 photos uploaded!

WunderBlog® & News

Nearby

Air Quality

  Air Quality AQ Index Pollutant
Not available.

Snow Depth

Station Depth Elevation

Earthquake Activity

City Distance Mag. Time & Date
Minimum magnitude displayed is 2.5.

Coastal Water Temperatures

Place Temperature

Stations

Nearby Weather Stations

Station Location Temp. Windchill Dew Point Humidity Wind Precip. Elev Updated Type
                   

Watches & Warnings

There are currently no watches in effect.